Terminal Aerodrome Forecast
Issued by NWS Louisville, KY

Home | Current Version | Previous Version | Text Only | Print | Product List | Glossary On
Versions: 1 2 3 4 5 6 7 8 9 10 11 12 13 14 15 16 17 18 19 20 21 22
000
FTUS43 KLMK 020000 AAB
TAFLEX
TAF AMD
KLEX 020057Z 0201/0224 22009KT P6SM VCTS BKN035CB
     FM020130 20007KT P6SM BKN080
     FM020800 19008KT P6SM BKN250
     FM021200 22010KT P6SM VCSH BKN040=

USA.gov is the U.S. government's official web portal to all federal, state and local government web resources and services.